Time;durP1;ratioP1;P1;durP2;ratioP2;P2;SDS_P1;SDS_P2;PMS_P1;PMS_P2;Temp;Humidity;BMP_temperature;BMP_pressure;BME280_temperature;BME280_humidity;BME280_pressure;Samples;Min_cycle;Max_cycle;Signal;HPM_P1;HPM_P2
2021/09/07 00:00:50;;;;;;;4.57;3.80;;;;;;;24.63;55.09;99883.22;2065240;28;20045;-41
2021/09/07 00:01:51;;;;;;;3.73;3.43;;;;;;;24.64;55.22;99884.94;2053792;28;20614;-41
2021/09/07 00:02:51;;;;;;;4.10;3.70;;;;;;;24.64;55.42;99884.94;2061630;28;20048;-41
2021/09/07 00:03:51;;;;;;;4.00;3.60;;;;;;;24.64;55.22;99889.59;2059625;28;20065;-41
2021/09/07 00:04:52;;;;;;;4.13;3.60;;;;;;;24.64;55.35;99887.69;2056280;28;20030;-41
2021/09/07 00:05:52;;;;;;;3.43;3.13;;;;;;;24.63;55.12;99894.25;2061622;28;20045;-42
2021/09/07 00:06:53;;;;;;;3.43;3.13;;;;;;;24.63;55.22;99888.75;2060926;28;20036;-41
2021/09/07 00:07:53;;;;;;;3.37;3.07;;;;;;;24.64;55.30;99898.72;2060213;28;20065;-41
2021/09/07 00:08:53;;;;;;;4.27;3.80;;;;;;;24.63;55.09;99894.25;2057942;28;20033;-41
2021/09/07 00:09:54;;;;;;;4.37;3.83;;;;;;;24.63;55.29;99894.25;2057602;28;20657;-41
2021/09/07 00:10:54;;;;;;;4.20;3.80;;;;;;;24.64;55.14;99890.44;2062247;28;20041;-41
2021/09/07 00:11:55;;;;;;;3.83;3.53;;;;;;;24.63;55.22;99888.75;2057781;28;20132;-41
2021/09/07 00:12:56;;;;;;;4.40;4.00;;;;;;;24.64;55.42;99895.94;2055354;28;20089;-41
2021/09/07 00:13:56;;;;;;;3.63;3.33;;;;;;;24.63;55.12;99891.50;2059305;28;20352;-41
2021/09/07 00:14:57;;;;;;;9.30;3.90;;;;;;;24.62;55.30;99892.56;2064629;28;20049;-41
2021/09/07 00:15:57;;;;;;;4.20;3.57;;;;;;;24.64;55.13;99892.34;2057430;28;20060;-41
2021/09/07 00:16:57;;;;;;;4.43;3.20;;;;;;;24.62;55.23;99889.81;2063000;28;20033;-41
2021/09/07 00:17:58;;;;;;;3.50;3.20;;;;;;;24.63;55.34;99893.41;2055825;28;20117;-41
2021/09/07 00:18:58;;;;;;;3.37;3.07;;;;;;;24.63;55.27;99897.00;2057753;28;20355;-41
2021/09/07 00:19:59;;;;;;;3.63;3.30;;;;;;;24.63;55.45;99899.78;2058651;28;20041;-41
2021/09/07 00:20:59;;;;;;;4.03;3.57;;;;;;;24.63;55.18;99904.44;2059600;28;20416;-41
2021/09/07 00:22:00;;;;;;;3.73;3.40;;;;;;;24.63;55.31;99905.28;2061941;28;20048;-41
2021/09/07 00:23:00;;;;;;;3.27;2.97;;;;;;;24.64;55.42;99906.13;2052581;28;20030;-40
2021/09/07 00:24:01;;;;;;;3.77;3.43;;;;;;;24.64;55.27;99903.38;2058563;28;20026;-41
2021/09/07 00:25:01;;;;;;;3.93;3.43;;;;;;;24.65;55.15;99902.34;2059020;28;20058;-42
2021/09/07 00:26:02;;;;;;;4.30;3.93;;;;;;;24.63;55.24;99899.78;2060480;28;20034;-41
2021/09/07 00:27:03;;;;;;;3.77;3.40;;;;;;;24.62;55.45;99898.06;2057407;28;20030;-41
2021/09/07 00:28:03;;;;;;;4.13;3.70;;;;;;;24.64;55.46;99906.13;2061417;28;20356;-41
2021/09/07 00:29:04;;;;;;;3.63;3.33;;;;;;;24.63;55.30;99905.28;2051281;28;20034;-41
2021/09/07 00:30:05;;;;;;;4.17;3.50;;;;;;;24.62;55.29;99903.59;2057642;28;20396;-41
2021/09/07 00:31:06;;;;;;;4.30;3.90;;;;;;;24.63;55.39;99904.44;2068758;28;20328;-41
2021/09/07 00:32:06;;;;;;;3.53;3.23;;;;;;;24.63;55.38;99905.28;2057662;28;20396;-41
2021/09/07 00:33:08;;;;;;;4.10;3.70;;;;;;;24.63;55.25;99908.03;2067136;28;20037;-41
2021/09/07 00:34:08;;;;;;;3.47;3.17;;;;;;;24.63;55.25;99904.44;2053766;28;20656;-42
2021/09/07 00:35:11;;;;;;;3.93;3.43;;;;;;;24.63;55.51;99915.47;2057080;28;20042;-41
2021/09/07 00:36:11;;;;;;;4.68;3.45;;;;;;;24.62;55.54;99903.59;2061686;28;20336;-41
2021/09/07 00:37:12;;;;;;;4.43;3.97;;;;;;;24.62;55.26;99909.09;2059917;28;20108;-41
2021/09/07 00:38:12;;;;;;;5.67;3.17;;;;;;;24.64;55.28;99900.63;2061451;28;20293;-41
2021/09/07 00:39:13;;;;;;;4.07;3.43;;;;;;;24.63;55.53;99904.44;2052763;28;20122;-41
2021/09/07 00:40:14;;;;;;;3.60;3.30;;;;;;;24.63;55.50;99899.78;2056544;28;20033;-41
2021/09/07 00:41:14;;;;;;;4.57;3.33;;;;;;;24.63;55.56;99905.28;2061960;28;20432;-41
2021/09/07 00:42:15;;;;;;;3.83;3.53;;;;;;;24.62;55.60;99908.22;2053556;28;20364;-41
2021/09/07 00:43:16;;;;;;;5.00;3.20;;;;;;;24.62;55.45;99903.59;2066133;28;20141;-41
2021/09/07 00:44:23;;;;;;;4.13;3.50;;;;;;;24.63;55.37;99910.78;2060246;28;20391;-41
2021/09/07 00:45:23;;;;;;;3.92;3.22;;;;;;;24.62;55.34;99914.59;2058981;28;20107;-41
2021/09/07 00:46:24;;;;;;;4.30;3.70;;;;;;;24.63;55.54;99905.28;2067469;28;20029;-41
2021/09/07 00:47:24;;;;;;;4.50;3.73;;;;;;;24.63;55.61;99905.28;2056070;28;20032;-41
2021/09/07 00:48:25;;;;;;;3.73;3.33;;;;;;;24.63;55.40;99905.28;2056293;28;20017;-42
2021/09/07 00:49:27;;;;;;;4.50;3.30;;;;;;;24.63;55.68;99907.19;2060346;28;20034;-41
2021/09/07 00:50:28;;;;;;;4.20;3.80;;;;;;;24.63;55.47;99910.78;2062384;28;20033;-41
2021/09/07 00:51:28;;;;;;;4.43;3.40;;;;;;;24.64;55.54;99911.63;2060696;28;20109;-41
2021/09/07 00:52:29;;;;;;;4.80;4.30;;;;;;;24.63;55.53;99910.78;2061053;28;20034;-41
2021/09/07 00:53:30;;;;;;;4.03;3.72;;;;;;;24.63;55.42;99919.06;2057707;28;20045;-41
2021/09/07 00:54:36;;;;;;;5.00;3.80;;;;;;;24.63;55.53;99904.44;2063497;28;20030;-41
2021/09/07 00:55:38;;;;;;;4.97;3.60;;;;;;;24.62;55.66;99917.38;2065359;28;20265;-41
2021/09/07 00:56:40;;;;;;;4.20;3.83;;;;;;;24.63;55.66;99916.31;2061385;28;20025;-41
2021/09/07 00:57:43;;;;;;;3.80;3.50;;;;;;;24.63;55.49;99909.94;2066219;28;20032;-41
2021/09/07 00:58:45;;;;;;;4.18;3.60;;;;;;;24.63;55.53;99913.53;2059982;28;20025;-41
2021/09/07 00:59:46;;;;;;;3.42;3.13;;;;;;;24.61;55.45;99912.88;2062715;28;20122;-41
2021/09/07 01:00:46;;;;;;;3.77;3.30;;;;;;;24.63;55.58;99919.06;2058468;28;20037;-41
2021/09/07 01:01:47;;;;;;;3.90;3.40;;;;;;;24.63;55.38;99916.31;2063064;28;20367;-41
2021/09/07 01:02:48;;;;;;;4.25;3.67;;;;;;;24.62;55.44;99911.84;2055786;28;20033;-41
2021/09/07 01:03:48;;;;;;;4.30;3.90;;;;;;;24.62;55.52;99909.09;2062041;28;20332;-41
2021/09/07 01:04:49;;;;;;;3.80;3.20;;;;;;;24.63;55.39;99909.94;2060107;28;20037;-42
2021/09/07 01:05:50;;;;;;;3.80;3.40;;;;;;;24.62;55.45;99903.59;2061473;28;20030;-42
2021/09/07 01:06:50;;;;;;;4.30;3.90;;;;;;;24.62;55.52;99903.59;2060680;28;20756;-41
2021/09/07 01:07:51;;;;;;;4.47;3.90;;;;;;;24.63;55.38;99905.28;2064269;28;20033;-41
2021/09/07 01:08:53;;;;;;;3.97;3.50;;;;;;;24.62;55.44;99903.59;2063978;28;20619;-42
2021/09/07 01:09:53;;;;;;;;;;;;;;;24.59;55.57;99898.44;2061196;28;20028;-41
2021/09/07 01:10:54;;;;;;;4.22;3.83;;;;;;;24.59;55.58;99898.44;2058610;28;20011;-41
2021/09/07 01:11:55;;;;;;;4.20;3.27;;;;;;;24.59;55.60;99892.91;2062313;28;20037;-41
2021/09/07 01:12:55;;;;;;;3.47;3.17;;;;;;;24.60;55.58;99897.41;2065325;28;20070;-41
2021/09/07 01:13:56;;;;;;;3.38;3.00;;;;;;;24.60;55.54;99900.16;2059860;28;20514;-41
2021/09/07 01:14:57;;;;;;;4.00;3.40;;;;;;;24.61;55.64;99901.84;2060624;28;20064;-41
2021/09/07 01:16:00;;;;;;;3.13;2.83;;;;;;;24.60;55.72;99900.16;2062313;28;20041;-41
2021/09/07 01:17:01;;;;;;;4.47;3.72;;;;;;;24.61;55.80;99896.34;2057462;28;20117;-41
2021/09/07 01:18:02;;;;;;;3.60;3.30;;;;;;;24.61;55.64;99899.09;2062131;28;20036;-41
2021/09/07 01:19:03;;;;;;;4.10;3.70;;;;;;;24.60;55.70;99892.75;2059792;28;20029;-41
2021/09/07 01:20:03;;;;;;;3.93;3.63;;;;;;;24.61;55.75;99896.34;2056576;28;20026;-41
2021/09/07 01:21:09;;;;;;;3.80;3.50;;;;;;;24.62;55.55;99897.19;2059874;28;20048;-41
2021/09/07 01:22:10;;;;;;;4.07;3.67;;;;;;;24.61;55.53;99899.09;2062774;28;20040;-41
2021/09/07 01:23:10;;;;;;;4.40;3.77;;;;;;;24.62;55.62;99902.69;2060268;28;20029;-41
2021/09/07 01:24:10;;;;;;;3.87;3.57;;;;;;;24.62;55.57;99905.47;2063995;28;20029;-41
2021/09/07 01:25:11;;;;;;;3.70;3.20;;;;;;;24.62;55.46;99909.09;2058804;28;20510;-40
2021/09/07 01:26:17;;;;;;;3.95;3.55;;;;;;;24.62;55.67;99917.38;2059606;28;20495;-41
2021/09/07 01:27:22;;;;;;;3.55;3.25;;;;;;;24.60;55.78;99912.03;2054016;28;20382;-41
2021/09/07 01:28:24;;;;;;;4.00;3.60;;;;;;;24.62;55.71;99914.59;2056753;28;20042;-42
2021/09/07 01:29:24;;;;;;;3.92;3.53;;;;;;;24.61;55.54;99918.38;2059290;28;20041;-41
2021/09/07 01:30:25;;;;;;;3.93;3.03;;;;;;;24.62;55.62;99914.59;2057093;28;20521;-41
2021/09/07 01:31:25;;;;;;;3.93;3.20;;;;;;;24.63;55.44;99916.31;2055630;28;20030;-41
2021/09/07 01:32:26;;;;;;;4.10;3.50;;;;;;;24.62;55.69;99914.59;2054457;28;20723;-42
2021/09/07 01:33:27;;;;;;;4.53;4.13;;;;;;;24.62;55.75;99903.59;2058036;28;20870;-41
2021/09/07 01:34:28;;;;;;;3.60;3.30;;;;;;;24.62;55.67;99909.09;2060735;28;20037;-41
2021/09/07 01:35:28;;;;;;;3.83;3.43;;;;;;;24.62;55.85;99906.34;2059897;28;20041;-41
2021/09/07 01:36:28;;;;;;;4.53;3.60;;;;;;;24.61;55.62;99901.84;2059103;28;20042;-41
2021/09/07 01:37:29;;;;;;;4.23;3.83;;;;;;;24.62;55.49;99903.59;2054750;28;20501;-41
2021/09/07 01:38:30;;;;;;;3.70;3.40;;;;;;;24.62;55.62;99898.06;2058027;28;20044;-41
2021/09/07 01:39:31;;;;;;;4.07;3.65;;;;;;;24.62;55.60;99898.06;2058228;28;20029;-41
2021/09/07 01:40:32;;;;;;;4.07;3.17;;;;;;;24.61;55.61;99896.34;2055802;28;20744;-41
2021/09/07 01:41:32;;;;;;;4.20;3.80;;;;;;;24.61;55.46;99896.34;2058416;28;20022;-41
2021/09/07 01:42:32;;;;;;;3.40;3.10;;;;;;;24.62;55.65;99899.94;2055605;28;20041;-41
2021/09/07 01:43:33;;;;;;;4.60;3.80;;;;;;;24.61;55.78;99904.63;2057831;28;20022;-41
2021/09/07 01:44:34;;;;;;;3.87;3.50;;;;;;;24.60;55.74;99902.91;2064500;28;20218;-41
2021/09/07 01:45:34;;;;;;;4.17;3.77;;;;;;;24.62;55.76;99902.69;2058699;28;20651;-41
2021/09/07 01:46:34;;;;;;;3.57;3.20;;;;;;;24.60;55.71;99901.00;2059699;28;20038;-42
2021/09/07 01:47:38;;;;;;;3.80;3.30;;;;;;;24.61;55.62;99896.34;2055164;28;20084;-41
2021/09/07 01:48:39;;;;;;;3.67;3.35;;;;;;;24.61;55.62;99885.31;2060388;28;20232;-41
2021/09/07 01:49:40;;;;;;;4.03;3.60;;;;;;;24.61;55.70;99893.59;2060306;28;20040;-41
2021/09/07 01:50:40;;;;;;;3.87;3.10;;;;;;;24.61;55.55;99885.31;2056134;28;20029;-41
2021/09/07 01:51:43;;;;;;;4.20;3.60;;;;;;;24.60;55.86;99889.13;2058064;28;20661;-41
2021/09/07 01:52:43;;;;;;;3.90;3.50;;;;;;;24.60;55.69;99880.88;2058931;28;20112;-41
2021/09/07 01:53:44;;;;;;;3.83;3.40;;;;;;;24.60;55.63;99886.38;2059228;28;20066;-41
2021/09/07 01:54:46;;;;;;;4.67;3.43;;;;;;;24.61;55.84;99890.84;2060241;28;20116;-41
2021/09/07 01:55:46;;;;;;;3.60;3.30;;;;;;;24.61;55.86;99885.31;2058711;28;20057;-41
2021/09/07 01:56:47;;;;;;;3.57;3.27;;;;;;;24.61;55.72;99885.31;2060784;28;21160;-41
2021/09/07 01:57:49;;;;;;;4.35;3.95;;;;;;;24.61;55.75;99885.31;2059651;28;20022;-41
2021/09/07 01:58:50;;;;;;;4.03;3.65;;;;;;;24.60;55.71;99876.22;2067341;28;20091;-42
2021/09/07 01:59:50;;;;;;;3.60;3.30;;;;;;;24.61;55.69;99879.81;2055858;28;20423;-41
2021/09/07 02:00:50;;;;;;;4.33;3.93;;;;;;;24.61;55.79;99885.31;2058493;28;20034;-42
2021/09/07 02:01:51;;;;;;;3.53;3.23;;;;;;;24.61;55.73;99879.81;2060297;28;20033;-41
2021/09/07 02:02:51;;;;;;;3.90;3.50;;;;;;;24.60;55.86;99883.63;2058418;28;20066;-41
2021/09/07 02:03:52;;;;;;;4.03;3.63;;;;;;;24.61;55.70;99885.31;2061155;28;20045;-41
2021/09/07 02:04:52;;;;;;;4.13;3.70;;;;;;;24.61;55.73;99885.31;2058035;28;20068;-41
2021/09/07 02:05:52;;;;;;;3.77;3.47;;;;;;;24.60;55.73;99878.13;2059993;28;20367;-41
2021/09/07 02:06:53;;;;;;;3.77;3.40;;;;;;;24.60;55.57;99880.88;2063348;28;20038;-41
2021/09/07 02:07:54;;;;;;;3.50;3.20;;;;;;;24.60;55.79;99884.47;2059694;28;20252;-41
2021/09/07 02:08:54;;;;;;;3.73;3.43;;;;;;;24.61;55.78;99874.28;2061588;28;20072;-41
2021/09/07 02:09:55;;;;;;;3.57;3.13;;;;;;;24.61;55.75;99874.28;2058166;28;20034;-41
2021/09/07 02:10:56;;;;;;;4.07;3.77;;;;;;;24.61;55.68;99882.56;2066679;28;20029;-41
2021/09/07 02:11:56;;;;;;;4.07;3.67;;;;;;;24.61;55.85;99879.81;2067531;28;20111;-41
2021/09/07 02:12:57;;;;;;;3.83;3.50;;;;;;;24.62;55.62;99875.16;2061116;28;20037;-41
2021/09/07 02:13:58;;;;;;;3.70;3.37;;;;;;;24.62;55.77;99883.41;2067540;28;20037;-41
2021/09/07 02:14:59;;;;;;;3.83;3.53;;;;;;;24.62;55.64;99886.16;2060635;28;20030;-41
2021/09/07 02:15:59;;;;;;;3.60;3.30;;;;;;;24.60;55.88;99884.47;2066154;28;20558;-41
2021/09/07 02:17:00;;;;;;;3.73;3.43;;;;;;;24.60;55.73;99884.47;2060733;28;20098;-41
2021/09/07 02:18:00;;;;;;;3.70;3.30;;;;;;;24.60;55.73;99878.97;2060901;28;20054;-41
2021/09/07 02:19:01;;;;;;;3.50;3.20;;;;;;;24.60;55.69;99883.63;2067441;28;20033;-41
2021/09/07 02:20:02;;;;;;;3.80;3.40;;;;;;;24.60;55.57;99878.13;2058928;28;20068;-41
2021/09/07 02:21:03;;;;;;;3.90;3.50;;;;;;;24.59;55.81;99871.72;2061816;28;20108;-41
2021/09/07 02:22:05;;;;;;;4.83;3.13;;;;;;;24.60;55.78;99878.13;2060910;28;20055;-41
2021/09/07 02:23:06;;;;;;;3.67;3.20;;;;;;;24.59;55.85;99874.47;2066208;28;20034;-41
2021/09/07 02:24:07;;;;;;;5.20;3.15;;;;;;;24.60;55.73;99873.44;2059774;28;20026;-41
2021/09/07 02:25:08;;;;;;;3.40;3.10;;;;;;;24.60;55.82;99869.84;2058135;28;20033;-41
2021/09/07 02:26:08;;;;;;;4.63;3.58;;;;;;;24.60;55.97;99878.13;2067689;28;20148;-41
2021/09/07 02:27:09;;;;;;;4.03;3.63;;;;;;;24.60;55.72;99878.13;2054493;28;20454;-41
2021/09/07 02:28:09;;;;;;;3.70;3.10;;;;;;;24.59;55.77;99877.22;2068336;28;20398;-41
2021/09/07 02:29:10;;;;;;;3.57;3.27;;;;;;;24.60;55.84;99878.13;2057927;28;20026;-41
2021/09/07 02:30:11;;;;;;;3.77;3.47;;;;;;;24.61;55.77;99885.31;2058347;28;20924;-41
2021/09/07 02:31:12;;;;;;;4.40;3.47;;;;;;;24.60;55.73;99878.13;2061185;28;20455;-41
2021/09/07 02:32:12;;;;;;;3.97;3.57;;;;;;;24.60;55.71;99872.59;2056156;28;20037;-41
2021/09/07 02:33:13;;;;;;;4.23;3.83;;;;;;;24.60;55.66;99867.09;2059387;28;20050;-41
2021/09/07 02:34:13;;;;;;;3.93;3.43;;;;;;;24.61;55.72;99868.78;2058218;28;20033;-41
2021/09/07 02:35:14;;;;;;;3.83;3.40;;;;;;;24.59;55.64;99871.72;2056085;28;20601;-41
2021/09/07 02:36:14;;;;;;;3.67;3.27;;;;;;;24.59;55.61;99860.69;2062241;28;20022;-42
2021/09/07 02:37:15;;;;;;;4.23;3.73;;;;;;;24.60;55.73;99867.09;2057984;28;20076;-42
2021/09/07 02:38:15;;;;;;;3.43;2.87;;;;;;;24.59;55.69;99866.22;2051022;28;20084;-41
2021/09/07 02:39:15;;;;;;;4.60;3.77;;;;;;;24.60;55.72;99875.34;2059609;28;20034;-42
2021/09/07 02:40:16;;;;;;;3.70;3.40;;;;;;;24.60;55.72;99875.34;2057262;28;20034;-42
2021/09/07 02:41:16;;;;;;;3.80;3.40;;;;;;;24.60;55.67;99867.09;2058822;28;20120;-47
2021/09/07 02:42:17;;;;;;;3.80;3.40;;;;;;;24.59;55.70;99871.72;2063301;28;20348;-49
2021/09/07 02:43:17;;;;;;;4.63;3.63;;;;;;;24.60;55.64;99878.13;2058650;28;20064;-42
2021/09/07 02:44:18;;;;;;;3.70;3.33;;;;;;;24.59;55.73;99876.38;2059756;28;20525;-42
2021/09/07 02:45:18;;;;;;;3.97;3.57;;;;;;;24.60;55.56;99870.69;2066592;28;20040;-42
2021/09/07 02:46:19;;;;;;;3.57;3.23;;;;;;;24.61;55.64;99874.28;2057045;28;20117;-41
2021/09/07 02:47:19;;;;;;;4.00;3.60;;;;;;;24.59;55.73;99870.88;2058401;28;20179;-42
2021/09/07 02:48:20;;;;;;;3.67;3.30;;;;;;;24.61;55.81;99871.53;2056203;28;20030;-42
2021/09/07 02:49:21;;;;;;;3.75;3.45;;;;;;;24.59;55.64;99870.88;2061183;28;20026;-42
2021/09/07 02:50:22;;;;;;;3.80;3.33;;;;;;;24.59;55.88;99870.88;2056160;28;20436;-41
2021/09/07 02:51:23;;;;;;;3.65;3.35;;;;;;;24.59;55.57;99865.38;2059525;28;20590;-42
2021/09/07 02:52:23;;;;;;;4.00;3.57;;;;;;;24.59;56.03;99860.69;2058540;28;20137;-42
2021/09/07 02:53:25;;;;;;;3.90;3.50;;;;;;;24.60;55.96;99864.34;2059438;28;20514;-42
2021/09/07 02:54:26;;;;;;;3.60;3.30;;;;;;;24.60;55.80;99861.56;2061607;28;20301;-41
2021/09/07 02:55:26;;;;;;;3.90;3.60;;;;;;;24.59;55.88;99862.59;2056387;28;20099;-42
2021/09/07 02:56:27;;;;;;;3.63;3.27;;;;;;;24.59;55.70;99859.84;2059262;28;20030;-43
2021/09/07 02:57:27;;;;;;;3.80;3.40;;;;;;;24.58;55.71;99863.66;2059717;28;20037;-42
2021/09/07 02:58:28;;;;;;;5.00;3.73;;;;;;;24.59;55.79;99854.34;2059874;28;20030;-42
2021/09/07 02:59:28;;;;;;;3.70;3.40;;;;;;;24.59;55.92;99868.13;2058349;28;20084;-42
2021/09/07 03:00:29;;;;;;;4.23;3.83;;;;;;;24.59;55.83;99854.34;2065256;28;20142;-42
2021/09/07 03:01:29;;;;;;;3.53;3.23;;;;;;;24.59;55.83;99859.84;2062194;28;20038;-42
2021/09/07 03:02:30;;;;;;;3.73;3.23;;;;;;;24.60;55.84;99861.56;2061649;28;20096;-42
2021/09/07 03:03:30;;;;;;;3.90;3.50;;;;;;;24.58;55.83;99858.16;2065106;28;20041;-43
2021/09/07 03:04:31;;;;;;;3.90;3.50;;;;;;;24.57;55.81;99857.31;2058748;28;20076;-42
2021/09/07 03:05:31;;;;;;;4.17;3.50;;;;;;;24.58;55.90;99858.16;2060699;28;20233;-41
2021/09/07 03:06:32;;;;;;;3.80;3.50;;;;;;;24.58;55.86;99847.97;2061455;28;20030;-42
2021/09/07 03:07:32;;;;;;;3.77;3.40;;;;;;;24.59;55.82;99846.06;2060898;28;20479;-43
2021/09/07 03:08:33;;;;;;;3.63;3.00;;;;;;;24.58;55.79;99847.97;2056953;28;20025;-42
2021/09/07 03:09:34;;;;;;;4.00;3.60;;;;;;;24.58;55.88;99847.97;2059297;28;20030;-41
2021/09/07 03:10:34;;;;;;;3.87;3.47;;;;;;;24.58;56.05;99849.88;2059352;28;20041;-42
2021/09/07 03:11:35;;;;;;;3.50;3.20;;;;;;;24.58;55.80;99847.13;2059090;28;20029;-41
2021/09/07 03:12:35;;;;;;;3.67;3.30;;;;;;;24.58;55.70;99842.47;2057837;28;20061;-42
2021/09/07 03:13:36;;;;;;;3.87;3.57;;;;;;;24.58;55.98;99841.63;2060316;28;20586;-41
2021/09/07 03:14:37;;;;;;;3.87;3.10;;;;;;;24.59;55.89;99848.81;2056064;28;20038;-42
2021/09/07 03:15:40;;;;;;;3.58;3.25;;;;;;;24.58;55.95;99849.88;2061373;28;20033;-42
2021/09/07 03:16:41;;;;;;;4.80;3.60;;;;;;;24.59;56.10;99846.91;2062647;28;20312;-42
2021/09/07 03:17:41;;;;;;;4.60;3.57;;;;;;;24.59;55.94;99843.31;2058472;28;20505;-41
2021/09/07 03:18:42;;;;;;;3.70;3.40;;;;;;;24.58;55.59;99838.88;2058020;28;20484;-41
2021/09/07 03:19:42;;;;;;;3.93;3.53;;;;;;;24.58;56.06;99836.09;2059178;28;20067;-42
2021/09/07 03:20:43;;;;;;;3.87;3.53;;;;;;;24.58;55.95;99841.63;2061455;28;20032;-41
2021/09/07 03:21:43;;;;;;;3.70;3.40;;;;;;;24.58;55.94;99842.47;2058273;28;20041;-42
2021/09/07 03:22:44;;;;;;;3.60;2.90;;;;;;;24.57;55.97;99837.13;2059329;28;20104;-41
2021/09/07 03:23:45;;;;;;;3.33;3.03;;;;;;;24.57;56.09;99834.38;2059412;28;20445;-43
2021/09/07 03:24:45;;;;;;;3.73;3.43;;;;;;;24.58;56.00;99841.63;2057162;28;20048;-42
2021/09/07 03:25:45;;;;;;;3.77;3.47;;;;;;;24.58;55.93;99836.09;2058494;28;20025;-43
2021/09/07 03:26:46;;;;;;;3.47;2.90;;;;;;;24.57;55.85;99829.75;2058991;28;20373;-43
2021/09/07 03:27:46;;;;;;;3.37;3.07;;;;;;;24.56;55.79;99833.53;2059246;28;20071;-41
2021/09/07 03:28:47;;;;;;;3.67;3.37;;;;;;;24.57;55.91;99837.13;2057052;28;20033;-42
2021/09/07 03:29:47;;;;;;;5.00;3.27;;;;;;;24.57;55.87;99842.66;2062470;28;20037;-41
2021/09/07 03:30:48;;;;;;;3.73;3.40;;;;;;;24.58;56.04;99836.09;2056794;28;20091;-41
2021/09/07 03:31:48;;;;;;;3.43;3.13;;;;;;;24.58;55.91;99841.63;2056336;28;20452;-41
2021/09/07 03:32:49;;;;;;;3.20;2.90;;;;;;;24.57;55.79;99837.13;2059321;28;20056;-42
2021/09/07 03:33:50;;;;;;;3.92;3.53;;;;;;;24.58;55.79;99836.09;2061172;28;20379;-42
2021/09/07 03:34:50;;;;;;;3.37;2.77;;;;;;;24.58;55.66;99841.63;2062532;28;20033;-42
2021/09/07 03:35:51;;;;;;;3.23;2.93;;;;;;;24.57;55.90;99839.91;2055576;28;20040;-42
2021/09/07 03:36:52;;;;;;;3.63;3.33;;;;;;;24.57;55.93;99835.25;2054646;28;20030;-42
2021/09/07 03:37:53;;;;;;;4.07;3.67;;;;;;;24.58;55.74;99836.09;2059195;28;20062;-41
2021/09/07 03:38:53;;;;;;;4.32;3.67;;;;;;;24.58;55.93;99844.38;2058137;28;20100;-41
2021/09/07 03:39:53;;;;;;;3.20;2.90;;;;;;;24.58;55.96;99841.63;2059094;28;20080;-42
2021/09/07 03:40:54;;;;;;;4.00;2.97;;;;;;;24.58;55.93;99836.09;2058787;28;20446;-47
2021/09/07 03:41:55;;;;;;;4.57;3.27;;;;;;;24.57;55.76;99834.38;2060252;28;20025;-47
2021/09/07 03:42:55;;;;;;;4.30;3.40;;;;;;;24.56;55.96;99839.03;2056107;28;20045;-47
2021/09/07 03:43:56;;;;;;;3.80;3.40;;;;;;;24.57;56.04;99839.91;2059751;28;20091;-47
2021/09/07 03:44:57;;;;;;;3.53;3.10;;;;;;;24.55;55.94;99837.34;2059045;28;20312;-47
2021/09/07 03:45:57;;;;;;;3.50;3.20;;;;;;;24.57;55.89;99839.91;2058259;28;20336;-47
2021/09/07 03:46:58;;;;;;;4.23;3.40;;;;;;;24.56;55.91;99825.28;2060605;28;20021;-47
2021/09/07 03:47:59;;;;;;;4.50;3.30;;;;;;;24.56;55.90;99828.03;2054695;28;20057;-47
2021/09/07 03:49:00;;;;;;;3.43;3.13;;;;;;;24.57;55.81;99828.88;2060712;28;20025;-47
2021/09/07 03:50:01;;;;;;;4.53;3.15;;;;;;;24.56;55.83;99824.41;2063486;28;20029;-47
2021/09/07 03:51:01;;;;;;;3.67;3.37;;;;;;;24.57;56.04;99823.34;2058756;28;20136;-47
2021/09/07 03:52:02;;;;;;;4.13;3.60;;;;;;;24.57;55.98;99831.63;2055079;28;20056;-47
2021/09/07 03:53:03;;;;;;;3.67;3.33;;;;;;;24.57;55.83;99828.88;2059194;28;20048;-47
2021/09/07 03:54:03;;;;;;;4.67;3.60;;;;;;;24.56;55.94;99832.69;2057776;28;20875;-41
2021/09/07 03:55:05;;;;;;;3.70;3.30;;;;;;;24.56;55.76;99828.03;2058066;28;20045;-42
2021/09/07 03:56:05;;;;;;;3.80;3.50;;;;;;;24.56;55.98;99821.66;2055148;28;20027;-41
2021/09/07 03:57:06;;;;;;;4.00;3.60;;;;;;;24.58;56.01;99830.59;2058947;28;20033;-42
2021/09/07 03:58:06;;;;;;;3.83;3.30;;;;;;;24.57;55.97;99834.38;2059735;28;20017;-42
2021/09/07 03:59:07;;;;;;;3.57;3.27;;;;;;;24.56;55.85;99828.03;2059471;28;20173;-41
2021/09/07 04:00:08;;;;;;;4.23;3.43;;;;;;;24.57;55.91;99828.88;2060208;28;20034;-42
2021/09/07 04:01:09;;;;;;;4.05;3.65;;;;;;;24.57;55.75;99834.38;2057309;28;20037;-42
2021/09/07 04:02:10;;;;;;;3.70;3.40;;;;;;;24.57;55.99;99834.38;2064725;28;20479;-42
2021/09/07 04:03:15;;;;;;;4.17;3.33;;;;;;;24.56;56.03;99832.69;2068259;28;20039;-41
2021/09/07 04:04:17;;;;;;;3.60;3.30;;;;;;;24.56;55.96;99832.69;2071711;28;20586;-41
2021/09/07 04:05:17;;;;;;;4.07;3.38;;;;;;;24.56;56.02;99827.19;2065395;28;20302;-42
2021/09/07 04:06:17;;;;;;;3.40;3.10;;;;;;;24.55;55.98;99831.84;2061072;28;20100;-42
2021/09/07 04:07:18;;;;;;;3.20;2.77;;;;;;;24.56;56.11;99827.19;2066345;28;20021;-41
2021/09/07 04:08:18;;;;;;;4.13;3.30;;;;;;;24.56;55.91;99824.41;2060135;28;20643;-41
2021/09/07 04:09:20;;;;;;;3.57;3.23;;;;;;;24.55;56.18;99822.72;2065184;28;20382;-41
2021/09/07 04:10:20;;;;;;;3.85;3.45;;;;;;;24.57;55.86;99826.13;2065680;28;20060;-42
2021/09/07 04:11:20;;;;;;;3.63;3.30;;;;;;;24.56;55.94;99833.53;2059494;28;20340;-41
2021/09/07 04:12:21;;;;;;;3.33;3.03;;;;;;;24.56;55.95;99827.19;2065254;28;20378;-41
2021/09/07 04:13:21;;;;;;;4.10;3.70;;;;;;;24.56;55.74;99832.69;2060883;28;20139;-42
2021/09/07 04:14:22;;;;;;;3.60;3.30;;;;;;;24.56;55.88;99827.19;2062117;28;20030;-41
2021/09/07 04:15:22;;;;;;;3.70;3.30;;;;;;;24.56;55.92;99833.53;2061661;28;20044;-42
2021/09/07 04:16:23;;;;;;;4.07;3.67;;;;;;;24.56;55.79;99829.94;2059286;28;20124;-42
2021/09/07 04:17:23;;;;;;;3.57;3.27;;;;;;;24.56;55.92;99827.19;2058555;28;20446;-41
2021/09/07 04:18:24;;;;;;;3.90;3.30;;;;;;;24.57;55.99;99834.38;2055319;28;20027;-41
2021/09/07 04:19:24;;;;;;;3.83;3.27;;;;;;;24.57;56.02;99829.75;2063818;28;20037;-42
2021/09/07 04:20:25;;;;;;;4.00;3.60;;;;;;;24.56;56.00;99825.28;2060484;28;20072;-47
2021/09/07 04:21:26;;;;;;;3.50;3.20;;;;;;;24.56;55.91;99833.53;2060421;28;20025;-47
2021/09/07 04:22:26;;;;;;;3.67;3.37;;;;;;;24.56;55.84;99829.94;2064119;28;20391;-47
2021/09/07 04:23:27;;;;;;;3.60;3.27;;;;;;;24.55;55.83;99831.84;2065618;28;20149;-47
2021/09/07 04:24:28;;;;;;;3.73;3.43;;;;;;;24.55;55.99;99837.34;2060400;28;20551;-47
2021/09/07 04:25:29;;;;;;;3.87;3.33;;;;;;;24.55;55.89;99833.75;2062074;28;20022;-47
2021/09/07 04:26:31;;;;;;;3.85;3.42;;;;;;;24.55;55.98;99831.84;2058652;28;20042;-47
2021/09/07 04:27:31;;;;;;;3.55;3.25;;;;;;;24.55;55.94;99829.09;2066719;28;20056;-47
2021/09/07 04:28:31;;;;;;;4.00;3.60;;;;;;;24.55;55.91;99836.50;2060841;28;20424;-47
2021/09/07 04:29:32;;;;;;;3.50;3.20;;;;;;;24.55;55.85;99833.75;2057442;28;20065;-47
2021/09/07 04:30:32;;;;;;;4.10;3.60;;;;;;;24.55;55.84;99837.34;2060428;28;20041;-42
2021/09/07 04:31:33;;;;;;;3.17;2.87;;;;;;;24.56;56.02;99835.44;2058785;28;20727;-42
2021/09/07 04:32:34;;;;;;;5.40;3.70;;;;;;;24.54;55.96;99830.09;2057549;28;20029;-41
2021/09/07 04:33:35;;;;;;;4.32;3.80;;;;;;;24.55;55.88;99831.00;2064522;28;20786;-42
2021/09/07 04:34:35;;;;;;;3.40;3.10;;;;;;;24.56;55.87;99829.94;2063755;28;20030;-43
2021/09/07 04:35:36;;;;;;;3.90;3.30;;;;;;;24.54;56.03;99827.34;2061405;28;20034;-42
2021/09/07 04:36:36;;;;;;;3.60;3.30;;;;;;;24.55;55.89;99831.00;2060290;28;20416;-42
2021/09/07 04:37:37;;;;;;;3.43;3.10;;;;;;;24.54;56.07;99835.63;2056528;28;20378;-42
2021/09/07 04:38:37;;;;;;;2.97;2.67;;;;;;;24.54;55.81;99835.63;2065563;28;20396;-42
2021/09/07 04:39:38;;;;;;;3.43;3.13;;;;;;;24.54;55.82;99837.53;2058175;28;20034;-42
2021/09/07 04:40:38;;;;;;;3.93;3.60;;;;;;;24.55;56.04;99833.75;2061253;28;20356;-42
2021/09/07 04:41:39;;;;;;;5.20;3.37;;;;;;;24.55;56.01;99831.00;2052999;28;20098;-40
2021/09/07 04:42:40;;;;;;;3.70;3.40;;;;;;;24.54;55.97;99829.25;2062392;28;20029;-42
2021/09/07 04:43:40;;;;;;;3.07;2.80;;;;;;;24.54;55.91;99826.50;2054993;28;20049;-42
2021/09/07 04:44:41;;;;;;;3.87;3.53;;;;;;;24.55;56.06;99839.25;2062698;28;20034;-42
2021/09/07 04:45:41;;;;;;;3.63;3.33;;;;;;;24.53;55.86;99828.41;2063874;28;20040;-42
2021/09/07 04:46:42;;;;;;;4.13;3.63;;;;;;;24.54;55.96;99837.53;2056990;28;20053;-42